Terminal Aerodrome Forecast
Issued by NWS Portland, OR

Home | Current Version | Previous Version | Text Only | Print | Product List | Glossary On
Versions: 1 2 3 4 5 6 7 8 9 10 11 12 13 14 15 16 17 18 19 20 21 22 23 24 25 26 27 28 29 30 31
000
FTUS46 KPQR 242320
TAFPDX
TAF
KPDX 242320Z 2500/2524 28010KT P6SM VCSH SCT025 BKN045 BKN070
     FM250500 22008KT P6SM SCT045 BKN080
     FM251100 19012G20KT P6SM -RA OVC040
     FM251300 19014G24KT 6SM -RA BKN022 OVC035
     FM251600 20012G19KT 5SM RA BKN015 OVC030
     FM252000 22012KT P6SM -SHRA SCT020 BKN035 OVC045=

USA.gov is the U.S. government's official web portal to all federal, state and local government web resources and services.